createdAt,value
2023-05-01T00:00:51.955Z,10.52
2023-05-01T00:03:19.517Z,9.97
2023-05-01T00:05:47.046Z,9.77
2023-05-01T00:08:14.072Z,10.05
2023-05-01T00:10:42.068Z,10.16
2023-05-01T00:13:09.517Z,10.37
2023-05-01T00:15:41.578Z,10.09
2023-05-01T00:18:08.534Z,10.22
2023-05-01T00:20:35.465Z,10.07
2023-05-01T00:23:02.468Z,10.05
2023-05-01T00:25:30.783Z,9.77
2023-05-01T00:27:59.243Z,9.88
2023-05-01T00:30:27.236Z,9.92
2023-05-01T00:32:54.317Z,10.02
2023-05-01T00:35:21.183Z,10.30
2023-05-01T00:37:48.368Z,10.33
2023-05-01T00:40:15.531Z,10.47
2023-05-01T00:42:42.537Z,10.70
2023-05-01T00:45:10.332Z,10.96
2023-05-01T00:47:38.241Z,11.13
2023-05-01T00:50:05.877Z,9.86
2023-05-01T00:52:32.808Z,10.27
2023-05-01T00:54:59.810Z,10.45
2023-05-01T00:57:26.745Z,10.48
2023-05-01T00:59:53.589Z,10.54
2023-05-01T01:02:20.320Z,10.44
2023-05-01T01:04:47.400Z,10.54
2023-05-01T01:07:33.316Z,10.72
2023-05-01T01:10:31.591Z,10.87
2023-05-01T01:13:03.844Z,10.83
2023-05-01T01:15:34.490Z,11.00
2023-05-01T01:18:34.279Z,10.88
2023-05-01T01:21:23.063Z,10.87
2023-05-01T01:23:50.210Z,10.79
2023-05-01T01:26:49.820Z,10.78
2023-05-01T01:29:20.910Z,10.60
2023-05-01T01:31:57.386Z,10.52
2023-05-01T01:34:34.787Z,10.55
2023-05-01T01:37:20.711Z,10.56
2023-05-01T01:39:54.988Z,10.32
2023-05-01T01:42:26.276Z,10.09
2023-05-01T01:44:56.287Z,9.96
2023-05-01T01:47:27.892Z,10.07
2023-05-01T01:49:55.279Z,10.04
2023-05-01T01:52:22.335Z,9.82
2023-05-01T01:54:58.159Z,9.77
2023-05-01T01:57:25.967Z,9.86
2023-05-01T01:59:52.868Z,10.05
2023-05-01T02:02:20.328Z,10.18
2023-05-01T02:04:48.088Z,10.15
2023-05-01T02:07:14.917Z,9.96
2023-05-01T02:09:42.373Z,9.93
2023-05-01T02:12:09.479Z,9.86
2023-05-01T02:14:37.119Z,9.80
2023-05-01T02:17:03.979Z,9.43
2023-05-01T02:19:31.843Z,9.24
2023-05-01T02:21:58.644Z,9.13
2023-05-01T02:24:26.820Z,9.00
2023-05-01T02:27:03.483Z,9.19
2023-05-01T02:29:30.717Z,9.26
2023-05-01T02:31:57.637Z,9.20
2023-05-01T02:34:24.711Z,9.17
2023-05-01T02:36:51.614Z,9.23
2023-05-01T02:39:18.872Z,9.29
2023-05-01T02:41:45.808Z,9.36
2023-05-01T02:44:12.635Z,9.20
2023-05-01T02:46:39.372Z,9.26
2023-05-01T02:49:06.542Z,9.10
2023-05-01T02:51:33.517Z,9.05
2023-05-01T02:54:00.345Z,9.02
2023-05-01T02:56:27.578Z,8.88
2023-05-01T02:58:55.106Z,9.07
2023-05-01T03:01:21.970Z,9.08
2023-05-01T03:03:49.377Z,9.12
2023-05-01T03:06:16.364Z,9.30
2023-05-01T03:08:43.783Z,9.49
2023-05-01T03:11:10.791Z,9.64
2023-05-01T03:13:37.509Z,9.97
2023-05-01T03:16:04.919Z,10.19
2023-05-01T03:18:32.033Z,10.38
2023-05-01T03:20:59.010Z,10.24
2023-05-01T03:23:27.442Z,10.42
2023-05-01T03:25:54.389Z,10.66
2023-05-01T03:28:23.177Z,10.81
2023-05-01T03:30:51.715Z,10.77
2023-05-01T03:33:18.656Z,10.81
2023-05-01T03:35:45.518Z,11.00
2023-05-01T03:38:13.010Z,11.47
2023-05-01T03:41:04.577Z,11.67
2023-05-01T03:43:57.929Z,11.60
2023-05-01T03:46:30.931Z,11.73
2023-05-01T03:48:57.976Z,11.82
2023-05-01T03:51:25.124Z,11.90
2023-05-01T03:53:56.191Z,11.78
2023-05-01T03:56:25.309Z,11.61
2023-05-01T03:58:52.593Z,11.84
2023-05-01T04:01:19.616Z,12.17
2023-05-01T04:03:47.829Z,12.19
2023-05-01T04:06:16.582Z,12.19
2023-05-01T04:08:43.319Z,12.46
2023-05-01T04:11:10.605Z,12.62
2023-05-01T04:13:37.709Z,12.45
2023-05-01T04:16:06.265Z,12.89
2023-05-01T04:18:33.719Z,12.91
2023-05-01T04:21:00.508Z,12.86
2023-05-01T04:23:27.464Z,13.35
2023-05-01T04:25:56.981Z,13.62
2023-05-01T04:28:23.841Z,13.42
2023-05-01T04:30:50.701Z,13.95
2023-05-01T04:33:17.857Z,14.15
2023-05-01T04:35:45.045Z,14.50
2023-05-01T04:38:11.871Z,14.32
2023-05-01T04:40:39.326Z,14.83
2023-05-01T04:43:06.217Z,14.93
2023-05-01T04:45:33.096Z,14.59
2023-05-01T04:48:00.131Z,14.32
2023-05-01T04:50:27.314Z,14.37
2023-05-01T04:52:54.395Z,14.47
2023-05-01T04:55:21.368Z,14.34
2023-05-01T04:58:17.464Z,14.43
2023-05-01T05:00:45.691Z,14.61
2023-05-01T05:03:20.267Z,14.92
2023-05-01T05:05:47.065Z,14.83
2023-05-01T05:08:15.057Z,14.97
2023-05-01T05:10:47.190Z,15.18
2023-05-01T05:13:39.451Z,15.36
2023-05-01T05:16:11.497Z,15.53
2023-05-01T05:18:38.450Z,15.66
2023-05-01T05:21:06.048Z,15.77
2023-05-01T05:23:33.031Z,15.63
2023-05-01T05:26:00.872Z,16.07
2023-05-01T05:28:28.366Z,15.99
2023-05-01T05:30:56.108Z,16.42
2023-05-01T05:33:24.466Z,16.71
2023-05-01T05:35:51.822Z,16.69
2023-05-01T05:38:19.745Z,17.02
2023-05-01T05:40:49.904Z,16.70
2023-05-01T05:43:17.605Z,16.50
2023-05-01T05:45:45.273Z,17.15
2023-05-01T05:48:12.240Z,17.56
2023-05-01T05:50:40.656Z,17.24
2023-05-01T05:53:08.500Z,16.81
2023-05-01T05:55:35.682Z,16.85
2023-05-01T05:58:04.161Z,16.99
2023-05-01T06:00:31.708Z,17.23
2023-05-01T06:03:02.050Z,17.73
2023-05-01T06:05:30.316Z,18.02
2023-05-01T06:07:57.168Z,17.72
2023-05-01T06:10:24.038Z,18.20
2023-05-01T06:12:56.290Z,18.19
2023-05-01T06:15:38.826Z,17.83
2023-05-01T06:18:05.949Z,18.14
2023-05-01T06:20:33.171Z,17.41
2023-05-01T06:23:00.036Z,17.51
2023-05-01T06:25:32.696Z,17.80
2023-05-01T06:27:59.485Z,17.57
2023-05-01T06:30:26.280Z,17.95
2023-05-01T06:32:53.141Z,18.18
2023-05-01T06:35:20.495Z,18.12
2023-05-01T06:37:47.348Z,17.99
2023-05-01T06:40:14.266Z,18.35
2023-05-01T06:42:43.509Z,18.16
2023-05-01T06:45:10.487Z,18.15
2023-05-01T06:47:37.297Z,18.36
2023-05-01T06:50:05.920Z,18.87
2023-05-01T06:52:33.883Z,18.28
2023-05-01T06:55:00.784Z,17.87
2023-05-01T06:57:27.720Z,17.88
2023-05-01T06:59:56.697Z,17.91
2023-05-01T07:02:23.888Z,18.49
2023-05-01T07:04:50.768Z,18.76
2023-05-01T07:07:17.515Z,18.75
2023-05-01T07:09:44.229Z,19.01
2023-05-01T07:12:11.828Z,18.53
2023-05-01T07:14:40.096Z,19.06
2023-05-01T07:17:08.469Z,19.46
2023-05-01T07:19:35.662Z,19.63
2023-05-01T07:22:04.096Z,19.75
2023-05-01T07:24:30.974Z,19.33
2023-05-01T07:26:57.784Z,18.40
2023-05-01T07:29:24.598Z,17.87
2023-05-01T07:31:51.370Z,18.05
2023-05-01T07:34:19.016Z,18.44
2023-05-01T07:36:46.160Z,19.22
2023-05-01T07:39:14.138Z,18.92
2023-05-01T07:41:41.055Z,19.25
2023-05-01T07:44:08.475Z,19.68
2023-05-01T07:46:36.461Z,19.16
2023-05-01T07:49:03.752Z,19.14
2023-05-01T07:51:30.915Z,18.86
2023-05-01T07:53:58.440Z,18.63
2023-05-01T07:56:25.275Z,18.94
2023-05-01T07:58:52.029Z,18.82
2023-05-01T08:01:18.911Z,19.32
2023-05-01T08:03:46.514Z,19.15
2023-05-01T08:06:14.987Z,18.89
2023-05-01T08:08:41.787Z,19.18
2023-05-01T08:11:09.160Z,19.40
2023-05-01T08:13:36.299Z,18.95
2023-05-01T08:16:03.435Z,18.66
2023-05-01T08:18:30.502Z,19.05
2023-05-01T08:20:57.234Z,19.36
2023-05-01T08:23:24.774Z,19.07
2023-05-01T08:25:51.823Z,18.61
2023-05-01T08:28:22.241Z,19.26
2023-05-01T08:30:49.143Z,19.58
2023-05-01T08:33:15.958Z,19.47
2023-05-01T08:35:43.005Z,18.02
2023-05-01T08:38:12.697Z,16.03
2023-05-01T08:40:42.117Z,16.37
2023-05-01T08:43:09.106Z,16.72
2023-05-01T08:45:37.092Z,15.76
2023-05-01T08:48:07.173Z,15.98
2023-05-01T08:50:36.001Z,16.50
2023-05-01T08:53:03.633Z,17.38
2023-05-01T08:55:31.808Z,18.75
2023-05-01T08:57:59.068Z,16.31
2023-05-01T09:00:26.682Z,16.29
2023-05-01T09:02:53.756Z,16.04
2023-05-01T09:05:20.693Z,15.61
2023-05-01T09:07:47.750Z,17.70
2023-05-01T09:10:18.619Z,17.44
2023-05-01T09:12:52.225Z,16.49
2023-05-01T09:15:19.029Z,18.61
2023-05-01T09:17:46.214Z,19.10
2023-05-01T09:20:13.438Z,16.71
2023-05-01T09:22:40.630Z,16.82
2023-05-01T09:25:09.869Z,17.71
2023-05-01T09:27:37.286Z,17.68
2023-05-01T09:30:06.163Z,18.11
2023-05-01T09:32:33.496Z,18.47
2023-05-01T09:35:10.754Z,18.40
2023-05-01T09:37:38.211Z,18.16
2023-05-01T09:40:12.295Z,18.42
2023-05-01T09:42:40.143Z,17.81
2023-05-01T09:45:13.408Z,17.91
2023-05-01T09:47:44.200Z,18.36
2023-05-01T09:50:33.754Z,18.64
2023-05-01T09:53:01.052Z,18.34
2023-05-01T09:55:28.028Z,18.12
2023-05-01T09:57:54.770Z,17.81
2023-05-01T10:00:21.546Z,18.06
2023-05-01T10:02:48.862Z,18.13
2023-05-01T10:05:15.705Z,17.72
2023-05-01T10:07:59.294Z,17.84
2023-05-01T10:10:26.155Z,18.04
2023-05-01T10:12:52.978Z,18.05
2023-05-01T10:15:25.437Z,18.21
2023-05-01T10:17:53.228Z,18.09
2023-05-01T10:20:20.375Z,17.96
2023-05-01T10:22:48.303Z,17.70
2023-05-01T10:25:16.142Z,18.47
2023-05-01T10:27:42.973Z,18.88
2023-05-01T10:30:10.246Z,18.68
2023-05-01T10:32:38.731Z,18.47
2023-05-01T10:35:11.496Z,18.64
2023-05-01T10:37:47.017Z,18.55
2023-05-01T10:40:43.772Z,18.52
2023-05-01T10:43:29.883Z,18.62
2023-05-01T10:46:21.537Z,18.68
2023-05-01T10:48:51.102Z,18.58
2023-05-01T10:51:27.461Z,17.47
2023-05-01T10:54:13.433Z,17.72
2023-05-01T10:56:42.297Z,18.66
2023-05-01T10:59:10.027Z,18.83
2023-05-01T11:01:51.474Z,18.85
2023-05-01T11:04:18.577Z,18.55
2023-05-01T11:07:04.699Z,18.88
2023-05-01T11:09:35.611Z,17.62
2023-05-01T11:12:03.057Z,17.76
2023-05-01T11:14:51.820Z,17.66
2023-05-01T11:17:37.630Z,17.61
2023-05-01T11:20:04.967Z,18.12
2023-05-01T11:22:32.917Z,18.23
2023-05-01T11:25:05.736Z,18.33
2023-05-01T11:27:32.956Z,18.39
2023-05-01T11:29:59.670Z,18.36
2023-05-01T11:32:27.480Z,18.32
2023-05-01T11:34:54.487Z,18.75
2023-05-01T11:37:43.937Z,19.08
2023-05-01T11:40:31.068Z,18.79
2023-05-01T11:43:07.667Z,18.65
2023-05-01T11:45:35.757Z,18.47
2023-05-01T11:48:04.602Z,18.27
2023-05-01T11:50:33.325Z,18.72
2023-05-01T11:53:00.229Z,19.29
2023-05-01T11:55:34.071Z,19.64
2023-05-01T11:58:01.364Z,19.89
2023-05-01T12:00:29.249Z,19.52
2023-05-01T12:02:57.164Z,19.35
2023-05-01T12:05:25.791Z,19.20
2023-05-01T12:08:07.270Z,17.41
2023-05-01T12:10:35.429Z,17.38
2023-05-01T12:13:03.437Z,17.64
2023-05-01T12:15:31.805Z,18.42
2023-05-01T12:17:58.606Z,18.71
2023-05-01T12:20:36.261Z,18.75
2023-05-01T12:23:07.068Z,18.88
2023-05-01T12:25:34.430Z,18.91
2023-05-01T12:28:02.632Z,19.14
2023-05-01T12:30:29.575Z,19.39
2023-05-01T12:32:57.245Z,19.06
2023-05-01T12:35:30.486Z,18.65
2023-05-01T12:37:58.177Z,18.74
2023-05-01T12:40:26.260Z,19.01
2023-05-01T12:42:57.066Z,19.34
2023-05-01T12:45:24.306Z,19.39
2023-05-01T12:47:51.107Z,19.07
2023-05-01T12:50:18.425Z,19.00
2023-05-01T12:52:45.223Z,19.19
2023-05-01T12:55:12.284Z,19.27
2023-05-01T12:57:53.296Z,19.59
2023-05-01T13:00:20.246Z,19.10
2023-05-01T13:02:47.140Z,18.92
2023-05-01T13:05:13.915Z,18.60
2023-05-01T13:07:40.858Z,17.73
2023-05-01T13:10:07.854Z,17.90
2023-05-01T13:12:34.728Z,18.11
2023-05-01T13:15:01.453Z,19.41
2023-05-01T13:17:30.087Z,19.51
2023-05-01T13:19:59.609Z,19.53
2023-05-01T13:22:29.613Z,18.38
2023-05-01T13:24:56.413Z,19.21
2023-05-01T13:27:23.483Z,19.93
2023-05-01T13:29:56.906Z,20.31
2023-05-01T13:32:25.052Z,20.15
2023-05-01T13:34:53.527Z,19.77
2023-05-01T13:37:20.878Z,19.53
2023-05-01T13:39:47.763Z,19.45
2023-05-01T13:42:25.460Z,19.43
2023-05-01T13:44:53.919Z,19.66
2023-05-01T13:47:25.268Z,19.85
2023-05-01T13:49:52.019Z,19.94
2023-05-01T13:52:19.286Z,19.73
2023-05-01T13:54:47.019Z,19.98
2023-05-01T13:57:15.503Z,20.60
2023-05-01T13:59:44.333Z,20.92
2023-05-01T14:02:27.803Z,21.22
2023-05-01T14:04:54.802Z,20.88
2023-05-01T14:07:23.324Z,19.35
2023-05-01T14:09:57.010Z,19.08
2023-05-01T14:12:29.647Z,19.15
2023-05-01T14:14:56.896Z,19.29
2023-05-01T14:17:31.840Z,19.01
2023-05-01T14:19:58.814Z,19.66
2023-05-01T14:22:29.296Z,19.59
2023-05-01T14:24:57.121Z,19.04
2023-05-01T14:27:24.310Z,18.72
2023-05-01T14:29:53.974Z,19.24
2023-05-01T14:32:20.806Z,19.88
2023-05-01T14:34:47.517Z,19.80
2023-05-01T14:37:17.067Z,20.09
2023-05-01T14:39:43.804Z,20.19
2023-05-01T14:42:11.077Z,20.13
2023-05-01T14:44:38.843Z,20.02
2023-05-01T14:47:05.973Z,19.83
2023-05-01T14:49:32.994Z,20.33
2023-05-01T14:51:59.846Z,20.18
2023-05-01T14:54:26.839Z,19.69
2023-05-01T14:56:53.587Z,18.81
2023-05-01T14:59:22.247Z,19.12
2023-05-01T15:01:48.985Z,19.12
2023-05-01T15:04:15.981Z,19.38
2023-05-01T15:06:43.107Z,19.37
2023-05-01T15:09:10.341Z,19.87
2023-05-01T15:11:37.262Z,19.72
2023-05-01T15:14:04.104Z,19.42
2023-05-01T15:16:32.112Z,19.24
2023-05-01T15:18:58.905Z,19.27
2023-05-01T15:21:25.869Z,19.25
2023-05-01T15:23:52.937Z,18.92
2023-05-01T15:26:20.821Z,18.86
2023-05-01T15:28:47.579Z,19.01
2023-05-01T15:31:14.427Z,19.36
2023-05-01T15:33:41.595Z,19.46
2023-05-01T15:36:08.565Z,19.26
2023-05-01T15:38:36.270Z,18.40
2023-05-01T15:41:03.135Z,17.82
2023-05-01T15:43:30.313Z,17.71
2023-05-01T15:45:59.161Z,17.47
2023-05-01T15:48:26.113Z,17.57
2023-05-01T15:50:52.850Z,16.84
2023-05-01T15:53:20.753Z,16.52
2023-05-01T15:55:47.569Z,16.16
2023-05-01T15:58:14.405Z,16.37
2023-05-01T16:00:41.238Z,17.47
2023-05-01T16:03:08.658Z,17.70
2023-05-01T16:05:36.138Z,17.92
2023-05-01T16:08:04.761Z,18.07
2023-05-01T16:10:36.544Z,17.25
2023-05-01T16:13:05.712Z,15.28
2023-05-01T16:15:33.290Z,15.29
2023-05-01T16:18:03.241Z,15.27
2023-05-01T16:20:35.111Z,15.26
2023-05-01T16:23:01.946Z,15.59
2023-05-01T16:25:28.701Z,15.98
2023-05-01T16:27:55.453Z,15.90
2023-05-01T16:30:27.032Z,15.78
2023-05-01T16:32:53.908Z,17.21
2023-05-01T16:35:25.844Z,17.44
2023-05-01T16:37:52.798Z,17.60
2023-05-01T16:40:19.562Z,17.58
2023-05-01T16:42:53.606Z,17.24
2023-05-01T16:45:20.725Z,17.01
2023-05-01T16:47:47.670Z,16.77
2023-05-01T16:50:15.810Z,16.63
2023-05-01T16:52:43.271Z,16.48
2023-05-01T16:55:10.319Z,16.32
2023-05-01T16:57:37.457Z,16.41
2023-05-01T17:00:05.388Z,16.38
2023-05-01T17:02:33.102Z,15.47
2023-05-01T17:05:00.347Z,15.61
2023-05-01T17:07:27.573Z,15.43
2023-05-01T17:09:54.289Z,15.53
2023-05-01T17:12:21.196Z,15.52
2023-05-01T17:14:47.915Z,15.55
2023-05-01T17:17:17.034Z,15.33
2023-05-01T17:19:43.869Z,15.16
2023-05-01T17:22:10.749Z,13.85
2023-05-01T17:24:38.577Z,11.99
2023-05-01T17:27:05.589Z,12.17
2023-05-01T17:29:33.085Z,12.79
2023-05-01T17:32:00.268Z,13.06
2023-05-01T17:34:28.532Z,13.31
2023-05-01T17:36:57.798Z,12.37
2023-05-01T17:39:26.975Z,12.51
2023-05-01T17:41:54.157Z,11.71
2023-05-01T17:44:20.995Z,10.96
2023-05-01T17:46:48.310Z,10.57
2023-05-01T17:49:15.653Z,10.85
2023-05-01T17:51:44.600Z,11.62
2023-05-01T17:54:11.515Z,12.30
2023-05-01T17:56:38.582Z,12.33
2023-05-01T17:59:05.387Z,12.16
2023-05-01T18:01:32.179Z,12.19
2023-05-01T18:03:59.363Z,12.08
2023-05-01T18:06:26.407Z,12.03
2023-05-01T18:08:53.278Z,12.05
2023-05-01T18:11:20.256Z,11.94
2023-05-01T18:13:47.581Z,11.91
2023-05-01T18:16:15.036Z,11.88
2023-05-01T18:18:42.066Z,11.96
2023-05-01T18:21:09.154Z,11.95
2023-05-01T18:23:36.183Z,11.95
2023-05-01T18:26:03.246Z,11.78
2023-05-01T18:28:31.053Z,11.77
2023-05-01T18:30:57.888Z,11.77
2023-05-01T18:33:25.023Z,11.76
2023-05-01T18:35:52.080Z,11.71
2023-05-01T18:38:20.657Z,11.75
2023-05-01T18:40:47.960Z,11.68
2023-05-01T18:43:15.090Z,11.61
2023-05-01T18:45:41.894Z,11.47
2023-05-01T18:48:09.049Z,11.43
2023-05-01T18:50:36.188Z,11.36
2023-05-01T18:53:03.391Z,11.20
2023-05-01T18:55:30.449Z,11.09
2023-05-01T18:57:57.588Z,11.02
2023-05-01T19:00:26.001Z,10.82
2023-05-01T19:02:52.972Z,10.36
2023-05-01T19:05:22.042Z,10.31
2023-05-01T19:07:48.846Z,10.22
2023-05-01T19:10:15.812Z,10.33
2023-05-01T19:12:43.112Z,10.11
2023-05-01T19:15:11.201Z,10.02
2023-05-01T19:17:38.976Z,10.05
2023-05-01T19:20:06.960Z,10.13
2023-05-01T19:22:34.025Z,9.98
2023-05-01T19:25:01.101Z,10.03
2023-05-01T19:27:27.931Z,9.98
2023-05-01T19:29:54.913Z,9.97
2023-05-01T19:32:22.527Z,9.95
2023-05-01T19:34:49.721Z,9.93
2023-05-01T19:37:16.477Z,9.73
2023-05-01T19:39:43.249Z,9.59
2023-05-01T19:42:10.141Z,9.51
2023-05-01T19:44:37.046Z,9.43
2023-05-01T19:47:04.300Z,9.30
2023-05-01T19:49:35.315Z,9.26
2023-05-01T19:52:03.726Z,9.02
2023-05-01T19:54:30.961Z,8.94
2023-05-01T19:56:58.260Z,8.93
2023-05-01T19:59:26.287Z,8.73
2023-05-01T20:01:53.263Z,8.57
2023-05-01T20:04:22.314Z,8.53
2023-05-01T20:06:49.836Z,8.76
2023-05-01T20:09:16.716Z,8.97
2023-05-01T20:11:43.665Z,9.04
2023-05-01T20:14:10.615Z,8.76
2023-05-01T20:16:37.590Z,8.62
2023-05-01T20:19:04.500Z,8.62
2023-05-01T20:21:32.227Z,8.64
2023-05-01T20:23:59.105Z,8.63
2023-05-01T20:26:26.046Z,8.60
2023-05-01T20:28:53.047Z,8.63
2023-05-01T20:31:20.815Z,8.25
2023-05-01T20:33:47.828Z,8.37
2023-05-01T20:36:16.649Z,8.67
2023-05-01T20:38:44.840Z,8.77
2023-05-01T20:41:11.538Z,8.75
2023-05-01T20:43:38.350Z,8.66
2023-05-01T20:46:05.330Z,8.56
2023-05-01T20:48:32.826Z,8.54
2023-05-01T20:50:59.856Z,8.50
2023-05-01T20:53:26.664Z,8.39
2023-05-01T20:55:53.368Z,8.34
2023-05-01T20:58:20.463Z,8.31
2023-05-01T21:00:47.560Z,8.27
2023-05-01T21:03:15.502Z,8.17
2023-05-01T21:05:42.383Z,8.23
2023-05-01T21:08:09.219Z,8.33
2023-05-01T21:10:36.385Z,8.20
2023-05-01T21:13:03.194Z,8.23
2023-05-01T21:15:31.385Z,8.22
2023-05-01T21:17:59.902Z,8.13
2023-05-01T21:20:32.289Z,8.08
2023-05-01T21:23:00.183Z,8.24
2023-05-01T21:25:27.517Z,8.04
2023-05-01T21:27:54.278Z,7.88
2023-05-01T21:30:39.371Z,7.89
2023-05-01T21:33:08.114Z,7.89
2023-05-01T21:35:35.112Z,7.74
2023-05-01T21:38:01.940Z,7.73
2023-05-01T21:40:29.098Z,7.74
2023-05-01T21:42:55.864Z,7.63
2023-05-01T21:45:22.557Z,7.45
2023-05-01T21:47:50.238Z,7.51
2023-05-01T21:50:20.622Z,7.79
2023-05-01T21:52:48.855Z,7.74
2023-05-01T21:55:17.625Z,7.89
2023-05-01T21:57:44.349Z,7.91
2023-05-01T22:00:11.714Z,7.89
2023-05-01T22:02:43.073Z,7.74
2023-05-01T22:05:10.481Z,7.66
2023-05-01T22:07:40.771Z,7.66
2023-05-01T22:10:08.953Z,7.50
2023-05-01T22:12:35.847Z,7.44
2023-05-01T22:15:02.800Z,7.65
2023-05-01T22:17:29.766Z,7.68
2023-05-01T22:19:56.599Z,7.63
2023-05-01T22:22:23.424Z,7.48
2023-05-01T22:24:50.160Z,7.61
2023-05-01T22:27:16.957Z,7.62
2023-05-01T22:29:43.748Z,7.53
2023-05-01T22:32:10.578Z,7.60
2023-05-01T22:34:37.405Z,7.71
2023-05-01T22:37:04.673Z,7.68
2023-05-01T22:39:32.921Z,7.42
2023-05-01T22:41:59.868Z,7.38
2023-05-01T22:44:27.126Z,7.45
2023-05-01T22:46:53.965Z,7.35
2023-05-01T22:49:20.846Z,7.16
2023-05-01T22:51:47.900Z,7.09
2023-05-01T22:54:14.684Z,7.04
2023-05-01T22:56:41.392Z,7.15
2023-05-01T22:59:08.285Z,7.25
2023-05-01T23:01:35.025Z,7.33
2023-05-01T23:04:01.837Z,4.95
2023-05-01T23:06:29.128Z,5.50
2023-05-01T23:08:55.839Z,6.09
2023-05-01T23:11:22.635Z,6.37
2023-05-01T23:13:49.706Z,6.51
2023-05-01T23:16:16.530Z,6.45
2023-05-01T23:18:44.336Z,6.39
2023-05-01T23:21:12.462Z,6.34
2023-05-01T23:23:42.422Z,6.31
2023-05-01T23:26:21.902Z,6.34
2023-05-01T23:28:48.726Z,6.32
2023-05-01T23:31:25.194Z,6.29
2023-05-01T23:33:52.742Z,6.36
2023-05-01T23:36:19.883Z,6.40
2023-05-01T23:38:46.854Z,6.45
2023-05-01T23:41:14.184Z,6.45
2023-05-01T23:43:41.200Z,6.55
2023-05-01T23:46:08.022Z,6.58
2023-05-01T23:48:35.359Z,6.60
2023-05-01T23:51:02.244Z,6.65
2023-05-01T23:53:29.297Z,6.75
2023-05-01T23:55:56.401Z,6.87
2023-05-01T23:58:23.912Z,6.88
